sensor_id;sensor_type;location;lat;lon;timestamp;pressure;altitude;pressure_sealevel;temperature;humidity
38780;BME280;29273;49.962;9.768;2024-03-02T00:02:24;98662.16;;;9.56;55.99
38780;BME280;29273;49.962;9.768;2024-03-02T00:04:50;98666.63;;;9.55;56.18
38780;BME280;29273;49.962;9.768;2024-03-02T00:07:16;98664.22;;;9.54;56.19
38780;BME280;29273;49.962;9.768;2024-03-02T00:09:42;98667.91;;;9.53;56.24
38780;BME280;29273;49.962;9.768;2024-03-02T00:12:08;98669.72;;;9.52;56.29
38780;BME280;29273;49.962;9.768;2024-03-02T00:14:33;98670.78;;;9.51;56.41
38780;BME280;29273;49.962;9.768;2024-03-02T00:17:02;98669.16;;;9.50;56.47
38780;BME280;29273;49.962;9.768;2024-03-02T00:19:28;98668.13;;;9.51;56.69
38780;BME280;29273;49.962;9.768;2024-03-02T00:21:54;98666.50;;;9.50;56.50
38780;BME280;29273;49.962;9.768;2024-03-02T00:24:32;98668.34;;;9.50;56.69
38780;BME280;29273;49.962;9.768;2024-03-02T00:26:59;98672.81;;;9.49;56.32
38780;BME280;29273;49.962;9.768;2024-03-02T00:29:25;98672.00;;;9.49;56.46
38780;BME280;29273;49.962;9.768;2024-03-02T00:31:51;98672.00;;;9.49;56.65
38780;BME280;29273;49.962;9.768;2024-03-02T00:34:17;98671.78;;;9.50;56.61
38780;BME280;29273;49.962;9.768;2024-03-02T00:36:43;98672.81;;;9.49;56.65
38780;BME280;29273;49.962;9.768;2024-03-02T00:39:12;98674.78;;;9.54;56.38
38780;BME280;29273;49.962;9.768;2024-03-02T00:41:40;98669.94;;;9.51;56.76
38780;BME280;29273;49.962;9.768;2024-03-02T00:44:09;98671.34;;;9.53;56.58
38780;BME280;29273;49.962;9.768;2024-03-02T00:46:41;98675.22;;;9.51;56.72
38780;BME280;29273;49.962;9.768;2024-03-02T00:51:36;98673.63;;;9.50;56.76
38780;BME280;29273;49.962;9.768;2024-03-02T00:54:04;98678.47;;;9.53;56.74
38780;BME280;29273;49.962;9.768;2024-03-02T00:56:31;98681.34;;;9.51;56.83
38780;BME280;29273;49.962;9.768;2024-03-02T00:58:57;98683.16;;;9.51;56.92
38780;BME280;29273;49.962;9.768;2024-03-02T01:01:23;98682.34;;;9.50;56.87
38780;BME280;29273;49.962;9.768;2024-03-02T01:03:49;98680.72;;;9.49;56.70
38780;BME280;29273;49.962;9.768;2024-03-02T01:06:15;98685.00;;;9.50;56.94
38780;BME280;29273;49.962;9.768;2024-03-02T01:08:41;98683.16;;;9.51;56.98
38780;BME280;29273;49.962;9.768;2024-03-02T01:11:07;98688.44;;;9.51;56.84
38780;BME280;29273;49.962;9.768;2024-03-02T01:13:32;98690.28;;;9.50;56.99
38780;BME280;29273;49.962;9.768;2024-03-02T01:15:58;98697.41;;;9.50;57.04
38780;BME280;29273;49.962;9.768;2024-03-02T01:18:24;98694.56;;;9.51;57.04
38780;BME280;29273;49.962;9.768;2024-03-02T01:20:50;98689.50;;;9.50;57.17
38780;BME280;29273;49.962;9.768;2024-03-02T01:23:24;98693.06;;;9.55;56.53
38780;BME280;29273;49.962;9.768;2024-03-02T01:25:51;98691.91;;;9.51;56.69
38780;BME280;29273;49.962;9.768;2024-03-02T01:28:18;98683.38;;;9.49;56.78
38780;BME280;29273;49.962;9.768;2024-03-02T01:30:44;98691.31;;;9.49;56.87
38780;BME280;29273;49.962;9.768;2024-03-02T01:33:10;98679.94;;;9.49;56.90
38780;BME280;29273;49.962;9.768;2024-03-02T01:35:36;98668.56;;;9.48;56.95
38780;BME280;29273;49.962;9.768;2024-03-02T01:38:01;98660.84;;;9.47;57.03
38780;BME280;29273;49.962;9.768;2024-03-02T01:40:27;98668.00;;;9.46;57.10
38780;BME280;29273;49.962;9.768;2024-03-02T01:42:54;98672.22;;;9.47;57.18
38780;BME280;29273;49.962;9.768;2024-03-02T01:45:20;98672.22;;;9.47;57.47
38780;BME280;29273;49.962;9.768;2024-03-02T01:47:45;98662.47;;;9.48;57.36
38780;BME280;29273;49.962;9.768;2024-03-02T01:50:11;98672.22;;;9.47;57.33
38780;BME280;29273;49.962;9.768;2024-03-02T01:52:37;98661.88;;;9.45;57.21
38780;BME280;29273;49.962;9.768;2024-03-02T01:55:03;98669.00;;;9.45;57.15
38780;BME280;29273;49.962;9.768;2024-03-02T01:57:29;98676.13;;;9.44;56.85
38780;BME280;29273;49.962;9.768;2024-03-02T01:59:55;98672.88;;;9.42;57.20
38780;BME280;29273;49.962;9.768;2024-03-02T02:02:21;98668.06;;;9.39;57.50
38780;BME280;29273;49.962;9.768;2024-03-02T02:04:46;98669.88;;;9.39;57.12
38780;BME280;29273;49.962;9.768;2024-03-02T02:07:12;98669.09;;;9.38;57.17
38780;BME280;29273;49.962;9.768;2024-03-02T02:09:42;98666.81;;;9.42;56.63
38780;BME280;29273;49.962;9.768;2024-03-02T02:12:09;98666.66;;;9.37;57.10
38780;BME280;29273;49.962;9.768;2024-03-02T02:14:34;98664.25;;;9.35;57.05
38780;BME280;29273;49.962;9.768;2024-03-02T02:17:00;98670.78;;;9.33;57.20
38780;BME280;29273;49.962;9.768;2024-03-02T02:19:25;98670.78;;;9.33;57.15
38780;BME280;29273;49.962;9.768;2024-03-02T02:21:50;98670.19;;;9.31;57.08
38780;BME280;29273;49.962;9.768;2024-03-02T02:24:16;98669.59;;;9.29;56.92
38780;BME280;29273;49.962;9.768;2024-03-02T02:26:41;98662.13;;;9.25;56.97
38780;BME280;29273;49.962;9.768;2024-03-02T02:29:07;98658.91;;;9.23;56.78
38780;BME280;29273;49.962;9.768;2024-03-02T02:31:42;98662.94;;;9.26;56.24
38780;BME280;29273;49.962;9.768;2024-03-02T02:34:07;98663.81;;;9.20;57.00
38780;BME280;29273;49.962;9.768;2024-03-02T02:36:37;98658.31;;;9.21;56.48
38780;BME280;29273;49.962;9.768;2024-03-02T02:39:04;98659.97;;;9.16;56.53
38780;BME280;29273;49.962;9.768;2024-03-02T02:41:32;98655.16;;;9.13;56.50
38780;BME280;29273;49.962;9.768;2024-03-02T02:43:57;98664.31;;;9.10;56.43
38780;BME280;29273;49.962;9.768;2024-03-02T02:46:23;98652.34;;;9.07;56.40
38780;BME280;29273;49.962;9.768;2024-03-02T02:48:48;98650.19;;;9.04;56.41
38780;BME280;29273;49.962;9.768;2024-03-02T02:51:14;98650.63;;;9.01;56.23
38780;BME280;29273;49.962;9.768;2024-03-02T02:53:40;98646.56;;;8.99;56.43
38780;BME280;29273;49.962;9.768;2024-03-02T02:56:09;98643.50;;;9.02;56.26
38780;BME280;29273;49.962;9.768;2024-03-02T02:58:34;98640.13;;;8.95;56.45
38780;BME280;29273;49.962;9.768;2024-03-02T03:01:00;98637.69;;;8.93;56.29
38780;BME280;29273;49.962;9.768;2024-03-02T03:03:26;98641.56;;;8.91;56.45
38780;BME280;29273;49.962;9.768;2024-03-02T03:05:51;98642.84;;;8.88;56.55
38780;BME280;29273;49.962;9.768;2024-03-02T03:08:17;98643.25;;;8.85;56.32
38780;BME280;29273;49.962;9.768;2024-03-02T03:10:42;98634.16;;;8.81;56.10
38780;BME280;29273;49.962;9.768;2024-03-02T03:13:08;98637.25;;;8.78;56.18
38780;BME280;29273;49.962;9.768;2024-03-02T03:15:37;98636.00;;;8.80;55.83
38780;BME280;29273;49.962;9.768;2024-03-02T03:18:03;98633.63;;;8.72;56.23
38780;BME280;29273;49.962;9.768;2024-03-02T03:20:29;98643.63;;;8.70;56.36
38780;BME280;29273;49.962;9.768;2024-03-02T03:22:56;98641.41;;;8.67;56.05
38780;BME280;29273;49.962;9.768;2024-03-02T03:25:21;98647.94;;;8.64;56.10
38780;BME280;29273;49.962;9.768;2024-03-02T03:27:46;98643.31;;;8.60;56.29
38780;BME280;29273;49.962;9.768;2024-03-02T03:30:12;98646.38;;;8.57;56.31
38780;BME280;29273;49.962;9.768;2024-03-02T03:32:38;98647.59;;;8.54;56.21
38780;BME280;29273;49.962;9.768;2024-03-02T03:35:04;98651.28;;;8.53;56.03
38780;BME280;29273;49.962;9.768;2024-03-02T03:37:29;98644.81;;;8.49;56.06
38780;BME280;29273;49.962;9.768;2024-03-02T03:39:59;98645.03;;;8.47;55.86
38780;BME280;29273;49.962;9.768;2024-03-02T03:42:24;98655.19;;;8.44;56.01
38780;BME280;29273;49.962;9.768;2024-03-02T03:44:50;98654.59;;;8.42;56.02
38780;BME280;29273;49.962;9.768;2024-03-02T03:47:15;98649.75;;;8.39;55.96
38780;BME280;29273;49.962;9.768;2024-03-02T03:49:41;98647.53;;;8.36;55.91
38780;BME280;29273;49.962;9.768;2024-03-02T03:52:06;98651.41;;;8.33;56.03
38780;BME280;29273;49.962;9.768;2024-03-02T03:54:32;98650.00;;;8.30;55.62
38780;BME280;29273;49.962;9.768;2024-03-02T03:56:57;98648.00;;;8.26;55.59
38780;BME280;29273;49.962;9.768;2024-03-02T03:59:23;98655.53;;;8.22;55.36
38780;BME280;29273;49.962;9.768;2024-03-02T04:01:49;98648.06;;;8.19;55.53
38780;BME280;29273;49.962;9.768;2024-03-02T04:04:14;98653.78;;;8.16;55.89
38780;BME280;29273;49.962;9.768;2024-03-02T04:06:40;98661.91;;;8.14;55.59
38780;BME280;29273;49.962;9.768;2024-03-02T04:09:05;98650.94;;;8.11;55.32
38780;BME280;29273;49.962;9.768;2024-03-02T04:11:31;98654.03;;;8.08;55.32
38780;BME280;29273;49.962;9.768;2024-03-02T04:13:56;98661.34;;;8.06;55.35
38780;BME280;29273;49.962;9.768;2024-03-02T04:16:22;98659.16;;;8.03;55.40
38780;BME280;29273;49.962;9.768;2024-03-02T04:18:48;98654.88;;;8.02;55.64
38780;BME280;29273;49.962;9.768;2024-03-02T04:21:13;98653.25;;;8.01;55.91
38780;BME280;29273;49.962;9.768;2024-03-02T04:23:39;98655.91;;;8.01;56.17
38780;BME280;29273;49.962;9.768;2024-03-02T04:26:04;98652.25;;;8.02;56.48
38780;BME280;29273;49.962;9.768;2024-03-02T04:28:29;98652.25;;;8.02;56.53
38780;BME280;29273;49.962;9.768;2024-03-02T04:30:55;98650.19;;;8.04;56.67
38780;BME280;29273;49.962;9.768;2024-03-02T04:33:20;98654.69;;;8.03;56.74
38780;BME280;29273;49.962;9.768;2024-03-02T04:35:46;98660.53;;;8.05;56.94
38780;BME280;29273;49.962;9.768;2024-03-02T04:38:11;98647.34;;;8.05;56.79
38780;BME280;29273;49.962;9.768;2024-03-02T04:40:37;98653.44;;;8.06;56.46
38780;BME280;29273;49.962;9.768;2024-03-02T04:43:02;98663.75;;;8.07;56.43
38780;BME280;29273;49.962;9.768;2024-03-02T04:45:29;98676.94;;;8.07;56.59
38780;BME280;29273;49.962;9.768;2024-03-02T04:47:54;98667.22;;;8.08;56.47
38780;BME280;29273;49.962;9.768;2024-03-02T04:50:20;98670.28;;;8.05;56.43
38780;BME280;29273;49.962;9.768;2024-03-02T04:52:45;98672.09;;;8.04;56.66
38780;BME280;29273;49.962;9.768;2024-03-02T04:55:11;98676.56;;;8.04;56.91
38780;BME280;29273;49.962;9.768;2024-03-02T04:57:43;98673.13;;;8.03;57.08
38780;BME280;29273;49.962;9.768;2024-03-02T05:00:10;98682.63;;;8.04;57.05
38780;BME280;29273;49.962;9.768;2024-03-02T05:02:36;98681.84;;;8.04;57.39
38780;BME280;29273;49.962;9.768;2024-03-02T05:05:01;98685.06;;;8.06;57.43
38780;BME280;29273;49.962;9.768;2024-03-02T05:07:27;98685.91;;;8.06;57.44
38780;BME280;29273;49.962;9.768;2024-03-02T05:09:53;98686.69;;;8.07;57.28
38780;BME280;29273;49.962;9.768;2024-03-02T05:12:18;98689.91;;;8.09;57.07
38780;BME280;29273;49.962;9.768;2024-03-02T05:14:44;98696.22;;;8.08;56.86
38780;BME280;29273;49.962;9.768;2024-03-02T05:17:10;98687.06;;;8.10;56.87
38780;BME280;29273;49.962;9.768;2024-03-02T05:19:36;98681.00;;;8.10;56.88
38780;BME280;29273;49.962;9.768;2024-03-02T05:22:01;98697.63;;;8.10;56.78
38780;BME280;29273;49.962;9.768;2024-03-02T05:24:28;98688.69;;;8.11;57.05
38780;BME280;29273;49.962;9.768;2024-03-02T05:26:53;98687.66;;;8.12;56.96
38780;BME280;29273;49.962;9.768;2024-03-02T05:29:19;98696.41;;;8.13;57.17
38780;BME280;29273;49.962;9.768;2024-03-02T05:31:44;98694.56;;;8.13;57.15
38780;BME280;29273;49.962;9.768;2024-03-02T05:34:10;98694.56;;;8.13;57.30
38780;BME280;29273;49.962;9.768;2024-03-02T05:36:35;98688.28;;;8.14;57.42
38780;BME280;29273;49.962;9.768;2024-03-02T05:39:01;98695.97;;;8.16;57.39
38780;BME280;29273;49.962;9.768;2024-03-02T05:41:30;98696.78;;;8.17;57.44
38780;BME280;29273;49.962;9.768;2024-03-02T05:43:55;98696.78;;;8.17;57.60
38780;BME280;29273;49.962;9.768;2024-03-02T05:46:20;98692.31;;;8.17;57.82
38780;BME280;29273;49.962;9.768;2024-03-02T05:48:47;98694.13;;;8.17;57.78
38780;BME280;29273;49.962;9.768;2024-03-02T05:51:12;98699.19;;;8.18;57.70
38780;BME280;29273;49.962;9.768;2024-03-02T05:53:38;98692.50;;;8.15;57.49
38780;BME280;29273;49.962;9.768;2024-03-02T05:56:04;98694.13;;;8.17;57.09
38780;BME280;29273;49.962;9.768;2024-03-02T05:58:30;98695.97;;;8.16;56.87
38780;BME280;29273;49.962;9.768;2024-03-02T06:00:59;98700.63;;;8.14;56.95
38780;BME280;29273;49.962;9.768;2024-03-02T06:03:24;98697.19;;;8.13;57.03
38780;BME280;29273;49.962;9.768;2024-03-02T06:05:50;98699.03;;;8.13;57.06
38780;BME280;29273;49.962;9.768;2024-03-02T06:08:16;98694.56;;;8.13;56.96
38780;BME280;29273;49.962;9.768;2024-03-02T06:10:41;98695.56;;;8.12;57.30
38780;BME280;29273;49.962;9.768;2024-03-02T06:13:07;98692.94;;;8.12;57.51
38780;BME280;29273;49.962;9.768;2024-03-02T06:15:32;98687.66;;;8.12;57.36
38780;BME280;29273;49.962;9.768;2024-03-02T06:17:59;98699.84;;;8.13;57.33
38780;BME280;29273;49.962;9.768;2024-03-02T06:20:25;98690.09;;;8.14;57.31
38780;BME280;29273;49.962;9.768;2024-03-02T06:22:52;98678.53;;;8.15;57.02
38780;BME280;29273;49.962;9.768;2024-03-02T06:25:17;98685.84;;;8.13;57.33
38780;BME280;29273;49.962;9.768;2024-03-02T06:27:42;98692.94;;;8.12;57.29
38780;BME280;29273;49.962;9.768;2024-03-02T06:30:09;98696.63;;;8.11;57.12
38780;BME280;29273;49.962;9.768;2024-03-02T06:32:34;98706.31;;;8.11;57.34
38780;BME280;29273;49.962;9.768;2024-03-02T06:35:00;98714.25;;;8.11;57.13
38780;BME280;29273;49.962;9.768;2024-03-02T06:37:25;98719.50;;;8.11;57.13
38780;BME280;29273;49.962;9.768;2024-03-02T06:39:50;98718.50;;;8.12;57.00
38780;BME280;29273;49.962;9.768;2024-03-02T06:42:16;98731.09;;;8.10;57.26
38780;BME280;29273;49.962;9.768;2024-03-02T06:44:41;98730.06;;;8.11;57.33
38780;BME280;29273;49.962;9.768;2024-03-02T06:47:07;98736.97;;;8.12;57.44
38780;BME280;29273;49.962;9.768;2024-03-02T06:49:32;98739.41;;;8.13;57.67
38780;BME280;29273;49.962;9.768;2024-03-02T06:51:58;98734.72;;;8.15;57.74
38780;BME280;29273;49.962;9.768;2024-03-02T06:54:23;98740.81;;;8.16;57.65
38780;BME280;29273;49.962;9.768;2024-03-02T06:56:48;98745.63;;;8.19;57.84
38780;BME280;29273;49.962;9.768;2024-03-02T06:59:14;98744.41;;;8.22;58.20
38780;BME280;29273;49.962;9.768;2024-03-02T07:01:39;98749.28;;;8.25;58.10
38780;BME280;29273;49.962;9.768;2024-03-02T07:04:05;98742.97;;;8.26;58.00
38780;BME280;29273;49.962;9.768;2024-03-02T07:06:32;98745.19;;;8.29;58.45
38780;BME280;29273;49.962;9.768;2024-03-02T07:08:57;98747.59;;;8.30;58.39
38780;BME280;29273;49.962;9.768;2024-03-02T07:11:22;98750.03;;;8.32;58.54
38780;BME280;29273;49.962;9.768;2024-03-02T07:13:48;98760.38;;;8.33;58.61
38780;BME280;29273;49.962;9.768;2024-03-02T07:16:13;98750.41;;;8.36;58.38
38780;BME280;29273;49.962;9.768;2024-03-02T07:18:55;98734.59;;;8.36;58.47
38780;BME280;29273;49.962;9.768;2024-03-02T07:21:22;98754.25;;;8.40;58.44
38780;BME280;29273;49.962;9.768;2024-03-02T07:23:48;98742.66;;;8.41;58.67
38780;BME280;29273;49.962;9.768;2024-03-02T07:26:14;98751.41;;;8.41;58.89
38780;BME280;29273;49.962;9.768;2024-03-02T07:28:41;98752.63;;;8.45;58.82
38780;BME280;29273;49.962;9.768;2024-03-02T07:31:07;98743.69;;;8.46;58.97
38780;BME280;29273;49.962;9.768;2024-03-02T07:33:33;98741.44;;;8.50;58.84
38780;BME280;29273;49.962;9.768;2024-03-02T07:35:59;98750.50;;;8.54;58.59
38780;BME280;29273;49.962;9.768;2024-03-02T07:38:26;98744.22;;;8.55;58.72
38780;BME280;29273;49.962;9.768;2024-03-02T07:40:52;98746.66;;;8.57;58.81
38780;BME280;29273;49.962;9.768;2024-03-02T07:43:18;98750.69;;;8.59;58.72
38780;BME280;29273;49.962;9.768;2024-03-02T07:45:45;98761.22;;;8.59;58.59
38780;BME280;29273;49.962;9.768;2024-03-02T07:48:10;98750.69;;;8.59;58.47
38780;BME280;29273;49.962;9.768;2024-03-02T07:50:36;98753.94;;;8.61;58.57
38780;BME280;29273;49.962;9.768;2024-03-02T07:53:03;98752.09;;;8.62;58.69
38780;BME280;29273;49.962;9.768;2024-03-02T07:55:29;98753.72;;;8.63;58.88
38780;BME280;29273;49.962;9.768;2024-03-02T07:57:56;98740.31;;;8.64;59.09
38780;BME280;29273;49.962;9.768;2024-03-02T08:00:22;98743.31;;;8.68;59.24
38780;BME280;29273;49.962;9.768;2024-03-02T08:02:48;98740.47;;;8.69;59.48
38780;BME280;29273;49.962;9.768;2024-03-02T08:05:16;98742.66;;;8.73;59.37
38780;BME280;29273;49.962;9.768;2024-03-02T08:07:43;98734.72;;;8.79;59.12
38780;BME280;29273;49.962;9.768;2024-03-02T08:10:09;98749.50;;;8.80;59.21
38780;BME280;29273;49.962;9.768;2024-03-02T08:12:35;98744.81;;;8.82;59.15
38780;BME280;29273;49.962;9.768;2024-03-02T08:15:00;98754.94;;;8.85;59.16
38780;BME280;29273;49.962;9.768;2024-03-02T08:17:26;98756.16;;;8.89;59.30
38780;BME280;29273;49.962;9.768;2024-03-02T08:19:52;98762.38;;;8.95;59.36
38780;BME280;29273;49.962;9.768;2024-03-02T08:22:18;98756.09;;;8.96;59.51
38780;BME280;29273;49.962;9.768;2024-03-02T08:24:44;98758.06;;;9.01;59.49
38780;BME280;29273;49.962;9.768;2024-03-02T08:27:09;98760.28;;;9.04;59.29
38780;BME280;29273;49.962;9.768;2024-03-02T08:29:35;98760.88;;;9.06;59.44
38780;BME280;29273;49.962;9.768;2024-03-02T08:32:00;98757.56;;;9.11;59.34
38780;BME280;29273;49.962;9.768;2024-03-02T08:34:26;98758.19;;;9.13;59.38
38780;BME280;29273;49.962;9.768;2024-03-02T08:36:52;98762.00;;;9.17;59.27
38780;BME280;29273;49.962;9.768;2024-03-02T08:39:17;98751.00;;;9.20;59.33
38780;BME280;29273;49.962;9.768;2024-03-02T08:41:45;98754.78;;;9.24;59.23
38780;BME280;29273;49.962;9.768;2024-03-02T08:44:11;98749.06;;;9.27;59.12
38780;BME280;29273;49.962;9.768;2024-03-02T08:46:38;98750.50;;;9.30;59.16
38780;BME280;29273;49.962;9.768;2024-03-02T08:49:04;98741.53;;;9.31;59.07
38780;BME280;29273;49.962;9.768;2024-03-02T08:51:30;98749.00;;;9.34;59.14
38780;BME280;29273;49.962;9.768;2024-03-02T08:53:56;98746.94;;;9.36;59.27
38780;BME280;29273;49.962;9.768;2024-03-02T08:56:22;98745.13;;;9.36;59.37
38780;BME280;29273;49.962;9.768;2024-03-02T08:58:49;98745.72;;;9.38;59.44
38780;BME280;29273;49.962;9.768;2024-03-02T09:01:15;98743.66;;;9.40;59.37
38780;BME280;29273;49.962;9.768;2024-03-02T09:03:41;98751.16;;;9.43;59.28
38780;BME280;29273;49.962;9.768;2024-03-02T09:06:10;98752.78;;;9.44;59.25
38780;BME280;29273;49.962;9.768;2024-03-02T09:08:35;98751.72;;;9.45;59.39
38780;BME280;29273;49.962;9.768;2024-03-02T09:11:08;98754.31;;;9.52;58.98
38780;BME280;29273;49.962;9.768;2024-03-02T09:13:34;98753.94;;;9.49;59.54
38780;BME280;29273;49.962;9.768;2024-03-02T09:15:59;98751.06;;;9.50;59.59
38780;BME280;29273;49.962;9.768;2024-03-02T09:18:25;98752.28;;;9.54;59.60
38780;BME280;29273;49.962;9.768;2024-03-02T09:20:50;98758.94;;;9.57;59.51
38780;BME280;29273;49.962;9.768;2024-03-02T09:23:16;98762.97;;;9.59;59.49
38780;BME280;29273;49.962;9.768;2024-03-02T09:25:41;98754.22;;;9.59;59.48
38780;BME280;29273;49.962;9.768;2024-03-02T09:28:07;98758.50;;;9.60;59.57
38780;BME280;29273;49.962;9.768;2024-03-02T09:30:33;98756.66;;;9.60;59.65
38780;BME280;29273;49.962;9.768;2024-03-02T09:32:58;98759.28;;;9.60;59.33
38780;BME280;29273;49.962;9.768;2024-03-02T09:35:24;98754.22;;;9.59;59.55
38780;BME280;29273;49.962;9.768;2024-03-02T09:37:49;98755.84;;;9.60;59.50
38780;BME280;29273;49.962;9.768;2024-03-02T09:40:15;98762.97;;;9.59;59.66
38780;BME280;29273;49.962;9.768;2024-03-02T09:42:41;98766.41;;;9.60;59.88
38780;BME280;29273;49.962;9.768;2024-03-02T09:45:08;98764.13;;;9.63;59.85
38780;BME280;29273;49.962;9.768;2024-03-02T09:47:34;98766.78;;;9.63;59.81
38780;BME280;29273;49.962;9.768;2024-03-02T09:49:59;98764.94;;;9.64;59.97
38780;BME280;29273;49.962;9.768;2024-03-02T09:52:28;98761.63;;;9.69;59.69
38780;BME280;29273;49.962;9.768;2024-03-02T09:54:54;98767.16;;;9.67;60.12
38780;BME280;29273;49.962;9.768;2024-03-02T09:57:19;98753.50;;;9.70;60.36
38780;BME280;29273;49.962;9.768;2024-03-02T09:59:45;98761.78;;;9.74;60.66
38780;BME280;29273;49.962;9.768;2024-03-02T10:02:10;98751.56;;;9.77;60.58
38780;BME280;29273;49.962;9.768;2024-03-02T10:04:36;98757.25;;;9.81;60.65
38780;BME280;29273;49.962;9.768;2024-03-02T10:07:15;98745.31;;;9.90;59.94
38780;BME280;29273;49.962;9.768;2024-03-02T10:09:48;98749.94;;;9.95;60.05
38780;BME280;29273;49.962;9.768;2024-03-02T10:12:15;98746.28;;;9.96;60.62
38780;BME280;29273;49.962;9.768;2024-03-02T10:14:41;98741.56;;;9.98;60.91
38780;BME280;29273;49.962;9.768;2024-03-02T10:17:12;98739.97;;;10.09;60.46
38780;BME280;29273;49.962;9.768;2024-03-02T10:19:38;98738.97;;;10.10;60.90
38780;BME280;29273;49.962;9.768;2024-03-02T10:22:08;98741.06;;;10.19;60.71
38780;BME280;29273;49.962;9.768;2024-03-02T10:24:37;98738.56;;;10.25;60.57
38780;BME280;29273;49.962;9.768;2024-03-02T10:27:27;98734.63;;;10.27;60.54
38780;BME280;29273;49.962;9.768;2024-03-02T10:29:53;98724.44;;;10.31;61.17
38780;BME280;29273;49.962;9.768;2024-03-02T10:32:22;98729.78;;;10.43;60.75
38780;BME280;29273;49.962;9.768;2024-03-02T10:34:47;98721.63;;;10.44;61.24
38780;BME280;29273;49.962;9.768;2024-03-02T10:37:14;98729.44;;;10.51;61.19
38780;BME280;29273;49.962;9.768;2024-03-02T10:39:40;98732.00;;;10.58;61.25
38780;BME280;29273;49.962;9.768;2024-03-02T10:42:06;98724.75;;;10.65;60.93
38780;BME280;29273;49.962;9.768;2024-03-02T10:44:32;98730.16;;;10.70;61.05
38780;BME280;29273;49.962;9.768;2024-03-02T10:47:01;98726.38;;;10.78;60.90
38780;BME280;29273;49.962;9.768;2024-03-02T10:49:29;98726.72;;;10.81;60.88
38780;BME280;29273;49.962;9.768;2024-03-02T10:51:55;98724.19;;;10.86;60.88
38780;BME280;29273;49.962;9.768;2024-03-02T10:54:21;98720.84;;;10.91;60.83
38780;BME280;29273;49.962;9.768;2024-03-02T10:56:52;98721.53;;;10.98;60.70
38780;BME280;29273;49.962;9.768;2024-03-02T11:01:50;98714.25;;;11.05;60.71
38780;BME280;29273;49.962;9.768;2024-03-02T11:04:18;98712.88;;;11.15;60.73
38780;BME280;29273;49.962;9.768;2024-03-02T11:06:51;98714.97;;;11.24;60.43
38780;BME280;29273;49.962;9.768;2024-03-02T11:09:21;98708.13;;;11.28;60.37
38780;BME280;29273;49.962;9.768;2024-03-02T11:11:59;98705.34;;;11.35;60.42
38780;BME280;29273;49.962;9.768;2024-03-02T11:14:30;98710.75;;;11.40;60.54
38780;BME280;29273;49.962;9.768;2024-03-02T11:16:56;98706.84;;;11.43;60.47
38780;BME280;29273;49.962;9.768;2024-03-02T11:19:22;98705.66;;;11.51;60.07
38780;BME280;29273;49.962;9.768;2024-03-02T11:21:49;98699.66;;;11.55;59.96
38780;BME280;29273;49.962;9.768;2024-03-02T11:26:47;98694.56;;;11.65;59.82
38780;BME280;29273;49.962;9.768;2024-03-02T11:32:00;98690.25;;;11.76;59.42
38780;BME280;29273;49.962;9.768;2024-03-02T11:34:33;98685.16;;;11.87;59.36
38780;BME280;29273;49.962;9.768;2024-03-02T11:37:03;98684.47;;;11.91;59.61
38780;BME280;29273;49.962;9.768;2024-03-02T11:39:29;98681.59;;;11.93;59.47
38780;BME280;29273;49.962;9.768;2024-03-02T11:41:59;98672.19;;;12.02;59.47
38780;BME280;29273;49.962;9.768;2024-03-02T11:44:26;98672.50;;;12.06;59.11
38780;BME280;29273;49.962;9.768;2024-03-02T11:46:58;98671.31;;;12.13;59.15
38780;BME280;29273;49.962;9.768;2024-03-02T11:49:46;98661.25;;;12.15;59.25
38780;BME280;29273;49.962;9.768;2024-03-02T11:52:15;98654.19;;;12.21;58.86
38780;BME280;29273;49.962;9.768;2024-03-02T11:54:43;98652.44;;;12.27;59.08
38780;BME280;29273;49.962;9.768;2024-03-02T11:57:17;98641.16;;;12.36;59.06
38780;BME280;29273;49.962;9.768;2024-03-02T11:59:43;98632.16;;;12.37;58.98
38780;BME280;29273;49.962;9.768;2024-03-02T12:02:16;98639.22;;;12.49;58.93
38780;BME280;29273;49.962;9.768;2024-03-02T12:04:43;98626.78;;;12.49;58.42
38780;BME280;29273;49.962;9.768;2024-03-02T12:07:10;98623.94;;;12.56;57.99
38780;BME280;29273;49.962;9.768;2024-03-02T12:09:36;98619.75;;;12.60;58.03
38780;BME280;29273;49.962;9.768;2024-03-02T12:12:06;98621.75;;;12.70;58.61
38780;BME280;29273;49.962;9.768;2024-03-02T12:14:34;98616.19;;;12.71;58.12
38780;BME280;29273;49.962;9.768;2024-03-02T12:16:59;98608.53;;;12.75;57.91
38780;BME280;29273;49.962;9.768;2024-03-02T12:19:26;98606.25;;;12.84;57.49
38780;BME280;29273;49.962;9.768;2024-03-02T12:21:53;98608.97;;;12.89;57.62
38780;BME280;29273;49.962;9.768;2024-03-02T12:24:18;98611.72;;;12.94;57.76
38780;BME280;29273;49.962;9.768;2024-03-02T12:26:44;98595.84;;;12.99;57.27
38780;BME280;29273;49.962;9.768;2024-03-02T12:29:10;98591.38;;;13.05;57.38
38780;BME280;29273;49.962;9.768;2024-03-02T12:31:36;98587.97;;;13.09;57.17
38780;BME280;29273;49.962;9.768;2024-03-02T12:34:03;98594.69;;;13.17;56.86
38780;BME280;29273;49.962;9.768;2024-03-02T12:36:29;98581.72;;;13.21;56.95
38780;BME280;29273;49.962;9.768;2024-03-02T12:38:54;98585.25;;;13.26;56.74
38780;BME280;29273;49.962;9.768;2024-03-02T12:41:20;98574.66;;;13.31;56.27
38780;BME280;29273;49.962;9.768;2024-03-02T12:43:46;98568.63;;;13.36;56.13
38780;BME280;29273;49.962;9.768;2024-03-02T12:46:11;98568.69;;;13.41;55.99
38780;BME280;29273;49.962;9.768;2024-03-02T12:48:37;98568.72;;;13.46;55.41
38780;BME280;29273;49.962;9.768;2024-03-02T12:51:06;98563.47;;;13.51;54.91
38780;BME280;29273;49.962;9.768;2024-03-02T12:53:32;98570.44;;;13.58;55.15
38780;BME280;29273;49.962;9.768;2024-03-02T12:55:57;98565.97;;;13.63;54.97
38780;BME280;29273;49.962;9.768;2024-03-02T12:58:23;98560.69;;;13.68;55.18
38780;BME280;29273;49.962;9.768;2024-03-02T13:00:49;98550.09;;;13.74;54.12
38780;BME280;29273;49.962;9.768;2024-03-02T13:03:14;98546.41;;;13.80;54.66
38780;BME280;29273;49.962;9.768;2024-03-02T13:05:48;98548.91;;;13.92;55.05
38780;BME280;29273;49.962;9.768;2024-03-02T13:08:13;98542.53;;;13.93;54.07
38780;BME280;29273;49.962;9.768;2024-03-02T13:10:39;98539.13;;;13.97;53.70
38780;BME280;29273;49.962;9.768;2024-03-02T13:13:06;98539.69;;;14.04;53.66
38780;BME280;29273;49.962;9.768;2024-03-02T13:15:33;98536.81;;;14.11;53.64